Time;durP1;ratioP1;P1;durP2;ratioP2;P2;SDS_P1;SDS_P2;PMS_P1;PMS_P2;Temp;Humidity;BMP_temperature;BMP_pressure;BME280_temperature;BME280_humidity;BME280_pressure;Samples;Min_cycle;Max_cycle;Signal;HPM_P1;HPM_P2
2022/09/07 00:00:40;;;;;;;15.73;15.03;;;19.30;99.90;;;;;;2616124;54;20130;-78
2022/09/07 00:06:29;;;;;;;18.80;17.90;;;19.00;99.90;;;;;;2616859;54;20915;-77
2022/09/07 00:12:17;;;;;;;18.53;17.73;;;18.70;99.90;;;;;;2616855;54;20357;-79
2022/09/07 00:18:04;;;;;;;11.83;11.33;;;18.50;99.90;;;;;;2617857;54;20946;-78
2022/09/07 00:23:53;;;;;;;10.43;9.83;;;18.20;99.90;;;;;;2618041;54;20471;-83
2022/09/07 00:29:41;;;;;;;15.13;13.20;;;18.00;99.90;;;;;;2618802;54;20153;-82
2022/09/07 00:35:29;;;;;;;11.40;10.60;;;17.90;99.90;;;;;;2617350;54;20394;-79
2022/09/07 00:41:19;;;;;;;10.23;9.67;;;17.90;99.90;;;;;;2617948;54;20178;-79
2022/09/07 00:47:12;;;;;;;5.10;4.70;;;17.90;99.90;;;;;;2617847;54;20394;-78
2022/09/07 01:03:27;;;;;;;6.83;2.40;;;17.60;99.90;;;;;;2617915;54;20422;-79
2022/09/07 01:09:19;;;;;;;4.00;2.23;;;17.50;99.90;;;;;;2616808;54;20371;-78
2022/09/07 01:15:07;;;;;;;7.63;5.00;;;17.40;99.90;;;;;;2617742;54;20403;-80
2022/09/07 01:44:40;;;;;;;21.73;2.83;;;17.30;99.90;;;;;;2617984;54;20922;-79
2022/09/07 02:00:17;;;;;;;6.57;3.67;;;17.30;99.90;;;;;;2622162;39;20710;-83
2022/09/07 02:31:28;;;;;;;3.10;2.80;;;17.40;99.90;;;;;;2620416;54;20389;-81
2022/09/07 02:37:17;;;;;;;3.30;3.00;;;17.40;99.90;;;;;;2618405;54;20386;-80
2022/09/07 02:43:07;;;;;;;6.13;3.30;;;17.30;99.90;;;;;;2617591;54;20947;-80
2022/09/07 03:06:22;;;;;;;4.07;3.67;;;16.90;99.90;;;;;;2615751;54;20443;-80
2022/09/07 03:12:10;;;;;;;5.80;3.43;;;16.80;99.90;;;;;;2616102;46;20430;-79
2022/09/07 03:17:57;;;;;;;4.40;3.73;;;16.90;99.90;;;;;;2617229;54;20386;-78
2022/09/07 03:23:45;;;;;;;3.90;3.40;;;16.90;99.90;;;;;;2616819;54;20723;-79
2022/09/07 03:29:32;;;;;;;4.47;4.00;;;16.80;99.90;;;;;;2616269;54;20149;-79
2022/09/07 03:35:20;;;;;;;4.20;3.70;;;16.80;99.90;;;;;;2615760;54;20683;-80
2022/09/07 03:41:08;;;;;;;7.17;5.50;;;16.90;99.90;;;;;;2617830;54;20406;-79
2022/09/07 03:46:55;;;;;;;9.53;6.40;;;16.60;99.90;;;;;;2617661;54;20132;-79
2022/09/07 03:52:43;;;;;;;9.83;6.50;;;16.50;99.90;;;;;;2618154;54;20245;-80
2022/09/07 03:58:32;;;;;;;7.67;6.40;;;16.50;99.90;;;;;;2618957;54;20145;-84
2022/09/07 04:04:20;;;;;;;5.63;5.13;;;16.30;99.90;;;;;;2619976;54;20390;-79
2022/09/07 04:10:09;;;;;;;6.27;5.67;;;16.40;99.90;;;;;;2619068;54;20686;-79
2022/09/07 04:15:56;;;;;;;7.93;5.10;;;16.50;99.90;;;;;;2619616;54;20153;-78
2022/09/07 04:21:45;;;;;;;6.70;6.00;;;16.40;99.90;;;;;;2617936;54;20149;-79
2022/09/07 04:27:33;;;;;;;6.10;5.60;;;16.20;99.90;;;;;;2618864;54;20416;-79
2022/09/07 04:33:21;;;;;;;5.97;5.47;;;16.20;99.90;;;;;;2618843;54;20225;-80
2022/09/07 04:39:10;;;;;;;6.37;5.77;;;16.10;99.90;;;;;;2619357;54;20256;-82
2022/09/07 04:44:58;;;;;;;8.23;6.90;;;16.00;99.90;;;;;;2619181;39;20791;-79
2022/09/07 04:50:46;;;;;;;6.57;5.97;;;16.00;99.90;;;;;;2618318;54;20759;-80
2022/09/07 04:56:34;;;;;;;6.60;6.10;;;15.90;99.90;;;;;;2619306;54;20409;-86
2022/09/07 04:59:20;;;;;;;7.10;6.37;;;15.80;99.90;;;;;;2623232;47;20490;-85
2022/09/07 05:01:46;;;;;;;7.20;6.50;;;15.80;99.90;;;;;;2622457;47;20463;-86
2022/09/07 05:07:34;;;;;;;6.80;6.20;;;15.90;99.90;;;;;;2622655;54;20149;-84
2022/09/07 05:13:22;;;;;;;9.30;6.87;;;15.90;99.90;;;;;;2621970;54;20381;-83
2022/09/07 05:19:13;;;;;;;10.10;7.40;;;16.00;99.90;;;;;;2620540;54;20407;-85
2022/09/07 05:25:01;;;;;;;15.47;8.50;;;16.00;99.90;;;;;;2621761;54;20414;-84
2022/09/07 05:30:50;;;;;;;10.10;8.10;;;16.10;99.90;;;;;;2620774;54;20133;-83
2022/09/07 05:36:38;;;;;;;12.53;7.30;;;16.20;99.90;;;;;;2620890;54;20374;-85
2022/09/07 05:42:26;;;;;;;7.80;7.10;;;16.40;99.90;;;;;;2621911;54;20334;-86
2022/09/07 05:48:14;;;;;;;7.57;6.87;;;16.40;99.90;;;;;;2621408;54;20133;-84
2022/09/07 05:54:03;;;;;;;13.10;8.40;;;16.60;99.90;;;;;;2620639;54;20390;-85
2022/09/07 06:03:57;;;;;;;9.37;6.93;;;17.10;99.90;;;;;;2621409;54;20375;-86
2022/09/07 06:09:45;;;;;;;12.07;8.20;;;17.30;99.90;;;;;;2619961;54;20386;-84
2022/09/07 06:15:33;;;;;;;9.43;7.23;;;17.60;99.90;;;;;;2619989;54;20250;-83
2022/09/07 06:21:22;;;;;;;7.57;6.73;;;17.50;99.90;;;;;;2619971;54;20366;-84
2022/09/07 06:27:10;;;;;;;9.47;8.17;;;17.40;99.90;;;;;;2620764;54;20390;-84
2022/09/07 06:32:59;;;;;;;9.20;7.50;;;17.50;99.90;;;;;;2620043;54;20446;-82
2022/09/07 06:38:48;;;;;;;8.97;7.00;;;18.50;99.90;;;;;;2618507;39;20817;-82
2022/09/07 06:44:35;;;;;;;7.87;6.77;;;19.60;99.90;;;;;;2618513;54;20430;-82
2022/09/07 06:50:26;;;;;;;8.60;6.90;;;20.00;99.90;;;;;;2618443;54;20139;-81
2022/09/07 06:56:16;;;;;;;6.07;5.60;;;20.50;99.90;;;;;;2617918;39;20860;-81
2022/09/07 06:59:21;;;;;;;8.30;5.40;;;20.20;99.90;;;;;;2617080;47;20412;-80
2022/09/07 07:01:47;;;;;;;5.80;5.27;;;20.60;99.90;;;;;;2616499;54;21020;-81
2022/09/07 07:07:35;;;;;;;6.33;5.60;;;20.30;99.90;;;;;;2615892;54;20123;-81
2022/09/07 07:13:22;;;;;;;5.40;4.90;;;20.20;99.90;;;;;;2616533;54;20125;-82
2022/09/07 07:19:10;;;;;;;6.63;5.27;;;20.90;99.90;;;;;;2617879;54;20134;-81
2022/09/07 07:24:58;;;;;;;5.43;4.80;;;22.50;99.90;;;;;;2617864;54;20123;-82
2022/09/07 07:30:46;;;;;;;5.13;4.63;;;22.60;99.90;;;;;;2617385;39;20415;-80
2022/09/07 07:36:34;;;;;;;7.40;5.20;;;22.60;99.90;;;;;;2617300;54;20135;-81
2022/09/07 07:42:22;;;;;;;7.40;4.60;;;22.90;99.90;;;;;;2617289;54;20445;-80
2022/09/07 07:48:11;;;;;;;7.93;4.23;;;21.90;99.90;;;;;;2617053;54;20122;-80
2022/09/07 07:51:14;;;;;;;6.37;4.17;;;21.50;99.90;;;;;;2616259;54;20423;-80
2022/09/07 07:53:40;;;;;;;8.00;4.73;;;21.60;99.90;;;;;;2615937;47;20454;-79
2022/09/07 07:59:28;;;;;;;5.67;4.43;;;22.00;99.90;;;;;;2616597;54;20425;-78
2022/09/07 08:05:17;;;;;;;4.67;4.27;;;22.70;99.90;;;;;;2614918;54;20671;-78
2022/09/07 08:11:07;;;;;;;3.57;3.33;;;22.60;99.90;;;;;;2616412;54;20387;-79
2022/09/07 08:16:55;;;;;;;4.03;3.73;;;21.90;99.90;;;;;;2616544;54;20399;-79
2022/09/07 08:22:42;;;;;;;5.80;4.20;;;21.50;99.90;;;;;;2616977;54;20163;-79
2022/09/07 08:28:35;;;;;;;6.50;5.30;;;21.40;99.90;;;;;;2617736;54;20122;-80
2022/09/07 08:34:22;;;;;;;6.77;6.07;;;20.80;99.90;;;;;;2617319;54;20928;-79
2022/09/07 08:40:17;;;;;;;7.87;7.07;;;20.40;99.90;;;;;;2618055;54;20121;-80
2022/09/07 09:25:35;;;;;;;7.80;7.10;;;22.40;99.90;;;;;;2618034;54;20407;-79
2022/09/07 09:37:40;;;;;;;6.17;5.10;;;23.10;99.90;;;;;;2618633;54;20413;-79
2022/09/07 09:50:05;;;;;;;7.50;6.90;;;23.20;99.90;;;;;;2618741;54;20419;-78
2022/09/07 09:55:54;;;;;;;7.77;7.07;;;22.90;99.90;;;;;;2618890;54;20378;-79
2022/09/07 10:01:47;;;;;;;7.90;7.30;;;24.20;99.90;;;;;;2617317;54;20988;-78
2022/09/07 10:07:34;;;;;;;7.90;7.27;;;24.60;99.90;;;;;;2617448;54;20415;-78
2022/09/07 10:13:27;;;;;;;7.93;7.17;;;22.50;99.90;;;;;;2617190;54;20422;-78
2022/09/07 10:19:35;;;;;;;7.77;7.00;;;22.50;99.90;;;;;;2617097;54;20375;-78
2022/09/07 10:25:30;;;;;;;10.17;8.50;;;22.20;99.90;;;;;;2617715;39;20787;-79
2022/09/07 10:31:24;;;;;;;9.93;9.03;;;22.20;99.90;;;;;;2617263;54;20943;-80
2022/09/07 10:47:58;;;;;;;6.10;5.60;;;24.60;99.90;;;;;;2617084;54;21125;-80
2022/09/07 11:30:03;;;;;;;9.23;8.53;;;25.10;99.90;;;;;;2615374;54;20414;-79
2022/09/07 11:42:30;;;;;;;10.40;9.70;;;25.10;94.10;;;;;;2615583;54;20385;-79
2022/09/07 11:54:57;;;;;;;11.10;5.87;;;24.50;99.90;;;;;;2616245;54;20432;-79
2022/09/07 12:14:57;;;;;;;6.30;5.90;;;25.90;96.00;;;;;;2616234;54;20424;-80
2022/09/07 12:20:46;;;;;;;6.77;6.20;;;25.60;71.90;;;;;;2616520;54;20525;-80
2022/09/07 12:26:36;;;;;;;7.50;6.80;;;24.60;96.50;;;;;;2615958;54;20394;-81
2022/09/07 12:32:50;;;;;;;7.00;6.53;;;23.90;96.00;;;;;;2615928;54;20399;-79
2022/09/07 12:45:28;;;;;;;10.97;9.97;;;24.10;99.90;;;;;;2618182;54;20504;-79
2022/09/07 13:01:50;;;;;;;9.67;8.93;;;26.20;92.00;;;;;;2617170;54;20427;-80
2022/09/07 13:11:49;;;;;;;9.13;8.53;;;26.40;93.20;;;;;;2616080;54;20417;-80
2022/09/07 13:17:41;;;;;;;10.50;9.70;;;24.60;91.60;;;;;;2616764;54;20514;-80
2022/09/07 13:23:28;;;;;;;7.53;7.03;;;25.20;95.90;;;;;;2616707;39;20794;-79
2022/09/07 13:29:18;;;;;;;6.70;6.10;;;25.80;74.60;;;;;;2617469;54;20451;-80
2022/09/07 13:41:51;;;;;;;7.57;6.90;;;26.40;50.00;;;;;;2618280;54;20419;-79
2022/09/07 13:54:44;;;;;;;6.90;6.40;;;25.60;51.80;;;;;;2617730;54;20382;-80
2022/09/07 14:00:32;;;;;;;7.60;7.00;;;25.00;58.30;;;;;;2616492;39;20789;-80
2022/09/07 14:09:41;;;;;;;7.50;7.00;;;24.50;55.20;;;;;;2615921;54;20403;-81
2022/09/07 14:22:04;;;;;;;8.00;7.50;;;25.80;39.10;;;;;;2616752;46;20440;-79
2022/09/07 14:27:51;;;;;;;6.60;6.20;;;25.20;41.10;;;;;;2616670;54;20510;-80
2022/09/07 14:46:39;;;;;;;13.57;7.20;;;26.90;30.00;;;;;;2615527;54;20421;-81
2022/09/07 14:58:49;;;;;;;5.73;5.37;;;27.40;25.20;;;;;;2615788;54;20966;-82
2022/09/07 15:11:22;;;;;;;6.23;5.83;;;27.90;21.20;;;;;;2616225;54;20411;-79
2022/09/07 15:23:49;;;;;;;6.30;5.87;;;27.30;22.80;;;;;;2616016;54;20396;-77
2022/09/07 15:29:36;;;;;;;5.60;5.30;;;25.40;28.50;;;;;;2616808;54;20394;-77
2022/09/07 15:35:25;;;;;;;6.07;5.67;;;24.70;28.60;;;;;;2617075;54;20424;-78
2022/09/07 15:41:12;;;;;;;6.00;5.60;;;24.70;29.10;;;;;;2616979;47;20868;-79
2022/09/07 15:47:00;;;;;;;5.27;4.97;;;24.90;29.60;;;;;;2616976;54;20133;-80
2022/09/07 15:52:48;;;;;;;6.30;6.00;;;25.40;29.30;;;;;;2616716;54;20218;-79
2022/09/07 15:58:36;;;;;;;5.00;4.70;;;26.50;28.40;;;;;;2616831;54;20154;-78
2022/09/07 16:04:24;;;;;;;6.30;5.80;;;27.10;23.60;;;;;;2617206;46;20426;-79
2022/09/07 16:10:12;;;;;;;5.47;5.03;;;29.30;16.40;;;;;;2617018;54;20634;-79
2022/09/07 16:16:00;;;;;;;4.93;4.43;;;30.10;17.10;;;;;;2615964;39;20538;-78
2022/09/07 16:21:51;;;;;;;5.30;4.90;;;27.60;14.60;;;;;;2616918;54;20370;-79
2022/09/07 16:27:39;;;;;;;5.50;5.10;;;27.20;13.10;;;;;;2617827;46;20399;-79
2022/09/07 16:33:27;;;;;;;5.20;4.80;;;27.60;12.40;;;;;;2617128;54;20146;-79
2022/09/07 16:39:15;;;;;;;5.47;4.97;;;26.60;14.80;;;;;;2618366;54;20446;-79
2022/09/07 16:45:03;;;;;;;6.00;5.40;;;26.80;12.00;;;;;;2618835;31;20565;-79
2022/09/07 16:50:52;;;;;;;4.70;4.50;;;27.40;13.10;;;;;;2618407;54;21354;-80
2022/09/07 16:56:40;;;;;;;7.47;4.60;;;26.40;14.00;;;;;;2618131;54;20419;-79
2022/09/07 17:02:28;;;;;;;5.87;5.47;;;26.70;15.20;;;;;;2617383;54;20418;-79
2022/09/07 17:11:38;;;;;;;6.30;5.83;;;26.50;14.90;;;;;;2617735;54;20399;-80
2022/09/07 17:17:26;;;;;;;5.63;5.20;;;25.50;17.30;;;;;;2617437;54;20403;-80
2022/09/07 17:23:15;;;;;;;5.23;4.93;;;24.30;20.90;;;;;;2617535;39;20634;-79
2022/09/07 17:29:03;;;;;;;9.97;5.20;;;24.00;23.70;;;;;;2617636;54;20436;-81
2022/09/07 17:34:50;;;;;;;8.40;5.17;;;24.00;24.00;;;;;;2618038;54;20126;-83
2022/09/07 17:40:39;;;;;;;6.20;5.80;;;23.80;25.30;;;;;;2617699;54;20704;-81
2022/09/07 17:46:32;;;;;;;5.20;4.90;;;23.70;24.70;;;;;;2617829;39;20801;-81
2022/09/07 17:52:20;;;;;;;6.83;6.30;;;23.40;27.70;;;;;;2620692;54;20408;-82
2022/09/07 17:58:08;;;;;;;6.20;5.60;;;23.10;30.20;;;;;;2622420;39;20441;-81
2022/09/07 18:03:57;;;;;;;7.80;5.40;;;22.70;33.80;;;;;;2621907;54;20151;-82
2022/09/07 18:07:02;;;;;;;6.27;5.60;;;22.50;37.60;;;;;;2621388;54;20420;-82
2022/09/07 18:09:27;;;;;;;6.23;5.73;;;22.30;46.60;;;;;;2621405;46;20427;-82
2022/09/07 18:15:15;;;;;;;6.27;5.27;;;21.80;58.40;;;;;;2621138;54;20154;-82
2022/09/07 18:27:37;;;;;;;5.87;5.00;;;21.20;90.60;;;;;;2621563;54;20395;-81
2022/09/07 18:33:25;;;;;;;6.20;5.57;;;20.90;96.20;;;;;;2622088;54;20552;-80
2022/09/07 18:39:14;;;;;;;11.20;5.70;;;20.70;99.90;;;;;;2622895;54;20130;-82
2022/09/07 18:45:02;;;;;;;7.43;6.20;;;20.40;99.90;;;;;;2622627;54;20403;-80
2022/09/07 18:50:53;;;;;;;6.20;5.63;;;20.10;99.90;;;;;;2622261;54;20392;-81
2022/09/07 18:56:41;;;;;;;9.20;5.80;;;20.00;99.90;;;;;;2622842;54;20376;-83
2022/09/07 19:02:29;;;;;;;5.37;4.83;;;19.80;99.90;;;;;;2622866;54;20132;-80
2022/09/07 19:11:41;;;;;;;10.33;6.03;;;19.50;99.90;;;;;;2622542;54;20394;-81
2022/09/07 19:17:30;;;;;;;14.90;7.70;;;19.60;99.90;;;;;;2622237;39;20781;-82
2022/09/07 19:23:18;;;;;;;8.00;6.33;;;19.40;99.90;;;;;;2622412;54;20340;-81
2022/09/07 19:35:15;;;;;;;8.13;6.53;;;19.00;99.90;;;;;;2623346;54;20367;-81
2022/09/07 19:41:03;;;;;;;10.13;6.67;;;19.10;99.90;;;;;;2623058;54;20399;-81
2022/09/07 19:46:51;;;;;;;7.90;7.10;;;19.20;99.90;;;;;;2622141;54;20224;-81
2022/09/07 19:52:41;;;;;;;9.43;6.83;;;19.00;99.90;;;;;;2622835;54;20200;-81
2022/09/07 19:58:32;;;;;;;7.63;5.90;;;18.90;99.90;;;;;;2621857;54;21594;-81
2022/09/07 20:04:22;;;;;;;16.90;7.83;;;18.70;99.90;;;;;;2623498;54;20342;-82
2022/09/07 20:07:04;;;;;;;11.77;6.77;;;18.60;99.90;;;;;;2622948;54;20420;-81
2022/09/07 20:09:31;;;;;;;8.37;6.67;;;18.60;99.90;;;;;;2622790;54;20427;-81
2022/09/07 20:15:19;;;;;;;7.23;6.20;;;18.50;99.90;;;;;;2623331;54;20395;-80
2022/09/07 20:21:19;;;;;;;7.73;6.27;;;18.30;99.90;;;;;;2622094;54;20146;-81
2022/09/07 20:27:08;;;;;;;6.90;6.20;;;18.20;99.90;;;;;;2622472;54;20394;-81
2022/09/07 20:32:55;;;;;;;12.50;7.20;;;18.00;99.90;;;;;;2622936;54;20382;-81
2022/09/07 20:38:52;;;;;;;8.10;6.10;;;18.00;99.90;;;;;;2621957;54;20138;-82
2022/09/07 20:44:40;;;;;;;6.73;5.90;;;17.90;99.90;;;;;;2622280;54;20402;-82
2022/09/07 20:50:28;;;;;;;7.20;6.30;;;17.80;99.90;;;;;;2623113;54;20134;-81
2022/09/07 20:56:22;;;;;;;14.17;6.90;;;17.80;99.90;;;;;;2622982;54;20130;-80
2022/09/07 21:02:10;;;;;;;10.20;6.27;;;17.60;99.90;;;;;;2622216;54;20438;-82
2022/09/07 21:11:35;;;;;;;9.43;6.90;;;17.60;99.90;;;;;;2622893;54;20410;-81
2022/09/07 21:17:23;;;;;;;7.67;7.07;;;17.50;99.90;;;;;;2623072;54;20447;-81
2022/09/07 21:23:11;;;;;;;9.07;8.17;;;17.50;99.90;;;;;;2624026;54;20135;-80
2022/09/07 21:29:02;;;;;;;9.33;7.13;;;17.40;99.90;;;;;;2624265;54;20345;-82
2022/09/07 21:34:50;;;;;;;8.33;7.50;;;17.50;99.90;;;;;;2623517;54;20382;-81
2022/09/07 21:40:41;;;;;;;9.20;7.47;;;17.30;99.90;;;;;;2623467;54;20191;-81
2022/09/07 21:46:31;;;;;;;10.93;8.20;;;17.20;99.90;;;;;;2621439;54;20390;-80
2022/09/07 21:52:20;;;;;;;8.60;7.60;;;17.30;99.90;;;;;;2622212;54;20409;-81
2022/09/07 21:58:08;;;;;;;7.40;6.80;;;17.10;99.90;;;;;;2621959;39;20734;-80
2022/09/07 22:04:02;;;;;;;8.87;8.07;;;17.20;99.90;;;;;;2623411;54;20153;-82
2022/09/07 22:13:26;;;;;;;13.83;7.63;;;17.10;99.90;;;;;;2621482;54;20385;-81
2022/09/07 22:19:14;;;;;;;8.00;7.30;;;17.00;99.90;;;;;;2622003;54;20137;-81
2022/09/07 22:25:02;;;;;;;9.33;8.27;;;16.90;99.90;;;;;;2621742;54;20134;-81
2022/09/07 22:30:52;;;;;;;9.97;8.13;;;16.80;99.90;;;;;;2622720;54;20412;-82
2022/09/07 22:36:42;;;;;;;8.97;8.17;;;16.80;99.90;;;;;;2621834;54;20422;-80
2022/09/07 22:42:30;;;;;;;9.90;8.97;;;16.90;99.90;;;;;;2621848;54;20429;-80
2022/09/07 22:48:18;;;;;;;9.00;8.30;;;16.90;99.90;;;;;;2621855;54;20252;-81
2022/09/07 22:54:06;;;;;;;9.80;7.53;;;16.80;99.90;;;;;;2621828;54;20142;-80
2022/09/07 22:59:54;;;;;;;8.90;8.20;;;16.70;99.90;;;;;;2622865;54;20398;-81
2022/09/07 23:05:42;;;;;;;8.50;7.80;;;16.90;99.90;;;;;;2622263;54;20164;-80
2022/09/07 23:11:32;;;;;;;8.80;7.90;;;17.20;99.90;;;;;;2623000;54;20139;-80
2022/09/07 23:17:20;;;;;;;9.03;8.13;;;17.20;99.90;;;;;;2622593;54;20393;-80
2022/09/07 23:23:08;;;;;;;8.70;8.00;;;17.10;99.90;;;;;;2622647;54;20153;-81
2022/09/07 23:29:02;;;;;;;8.80;8.00;;;17.10;99.90;;;;;;2622333;54;20398;-81
2022/09/07 23:34:50;;;;;;;7.80;7.10;;;16.80;99.90;;;;;;2621545;54;20361;-80
2022/09/07 23:40:38;;;;;;;8.50;7.57;;;16.80;99.90;;;;;;2621292;54;20154;-81
2022/09/07 23:46:26;;;;;;;10.30;9.40;;;16.90;99.90;;;;;;2622036;54;20145;-81
2022/09/07 23:52:14;;;;;;;14.90;10.10;;;17.00;99.90;;;;;;2623261;54;20136;-81
2022/09/07 23:58:02;;;;;;;14.33;11.90;;;17.00;99.90;;;;;;2621928;54;20139;-80
